Time;durP1;ratioP1;P1;durP2;ratioP2;P2;SDS_P1;SDS_P2;PMS_P1;PMS_P2;Temp;Humidity;BMP_temperature;BMP_pressure;BME280_temperature;BME280_humidity;BME280_pressure;Samples;Min_cycle;Max_cycle;Signal;HPM_P1;HPM_P2
2023/06/22 00:02:16;;;;;;;11.52;3.90;;;;;;;;;;6176057;23;20176;-91
2023/06/22 03:52:46;;;;;;;7.18;3.80;;;;;;;;;;6253389;22;20212;-89
2023/06/22 03:55:51;;;;;;;15.20;3.92;;;;;;;;;;6336770;22;20164;-90
2023/06/22 03:58:57;;;;;;;9.45;3.90;;;;;;;;;;6337161;22;20169;-90
2023/06/22 04:02:32;;;;;;;14.27;4.22;;;;;;;;;;6336978;22;20172;-91
2023/06/22 04:05:38;;;;;;;13.18;4.45;;;;;;;;;;6335259;22;20211;-91
2023/06/22 04:08:50;;;;;;;13.80;4.68;;;;;;;;;;6337377;22;20156;-90
2023/06/22 04:11:56;;;;;;;7.93;4.40;;;;;;;;;;6335815;22;20164;-91
2023/06/22 04:15:01;;;;;;;10.35;4.05;;;;;;;;;;6337008;22;20163;-92
2023/06/22 04:18:09;;;;;;;10.07;3.83;;;;;;;;;;6337249;22;20175;-92
2023/06/22 04:21:15;;;;;;;11.02;4.22;;;;;;;;;;6336349;22;20163;-91
2023/06/22 04:24:21;;;;;;;11.73;4.97;;;;;;;;;;6338196;22;20148;-91
2023/06/22 04:27:27;;;;;;;10.18;3.92;;;;;;;;;;6337287;22;20174;-90
2023/06/22 04:30:32;;;;;;;11.40;4.30;;;;;;;;;;6338818;22;20217;-92
2023/06/22 04:33:43;;;;;;;10.18;4.70;;;;;;;;;;6343098;22;20143;-89
2023/06/22 04:36:50;;;;;;;10.55;4.18;;;;;;;;;;6335615;22;20164;-90
2023/06/22 09:34:48;;;;;;;13.13;4.53;;;;;;;;;;6235388;22;20212;-90
2023/06/22 09:37:54;;;;;;;9.90;3.55;;;;;;;;;;6306474;22;20164;-90
2023/06/22 09:45:24;;;;;;;10.00;4.35;;;;;;;;;;6325609;22;20157;-91
2023/06/22 09:48:30;;;;;;;17.13;4.07;;;;;;;;;;6305915;22;20195;-90
2023/06/22 09:51:37;;;;;;;7.65;3.80;;;;;;;;;;6305863;22;20176;-90
2023/06/22 09:54:42;;;;;;;8.10;3.50;;;;;;;;;;6305545;22;20160;-90
2023/06/22 09:57:49;;;;;;;9.00;3.72;;;;;;;;;;6305483;22;20195;-89
2023/06/22 10:00:54;;;;;;;8.50;4.20;;;;;;;;;;6307429;22;20148;-91
2023/06/22 10:04:00;;;;;;;11.25;3.75;;;;;;;;;;6306028;22;20160;-89
2023/06/22 10:07:07;;;;;;;15.07;4.93;;;;;;;;;;6309206;22;20252;-91
2023/06/22 10:10:12;;;;;;;11.13;3.75;;;;;;;;;;6307303;22;20207;-90
2023/06/22 10:13:21;;;;;;;10.35;4.65;;;;;;;;;;6303583;22;20180;-90
2023/06/22 10:16:31;;;;;;;13.18;4.00;;;;;;;;;;6302435;22;20164;-91
2023/06/22 10:19:38;;;;;;;15.90;4.07;;;;;;;;;;6299820;22;20169;-89
2023/06/22 10:22:45;;;;;;;11.07;4.05;;;;;;;;;;6299520;22;20156;-91
2023/06/22 10:25:51;;;;;;;9.70;4.28;;;;;;;;;;6302689;22;20165;-91
2023/06/22 10:28:56;;;;;;;14.32;3.95;;;;;;;;;;6303483;22;20171;-89
2023/06/22 10:32:01;;;;;;;9.23;3.85;;;;;;;;;;6303447;22;20160;-90
2023/06/22 10:35:08;;;;;;;16.33;4.25;;;;;;;;;;6301747;22;20227;-89
2023/06/22 10:38:14;;;;;;;13.13;4.80;;;;;;;;;;6304404;22;20179;-87
2023/06/22 10:41:19;;;;;;;13.77;4.43;;;;;;;;;;6304485;22;20221;-89
2023/06/22 10:44:25;;;;;;;11.68;4.40;;;;;;;;;;6304101;22;20164;-90
2023/06/22 10:47:30;;;;;;;11.60;3.92;;;;;;;;;;6307641;22;20173;-91
2023/06/22 10:50:35;;;;;;;13.20;4.30;;;;;;;;;;6306221;22;20156;-89
2023/06/22 10:53:43;;;;;;;11.57;4.00;;;;;;;;;;6304153;22;20153;-92
2023/06/22 10:57:16;;;;;;;13.13;4.55;;;;;;;;;;6304535;22;20163;-90
2023/06/22 11:00:25;;;;;;;11.82;3.97;;;;;;;;;;6306919;22;20161;-91
2023/06/22 11:03:33;;;;;;;12.68;4.13;;;;;;;;;;6306928;22;20164;-90
2023/06/22 11:06:41;;;;;;;15.18;4.78;;;;;;;;;;6308251;22;20160;-89
2023/06/22 11:09:51;;;;;;;19.83;4.28;;;;;;;;;;6306241;22;20236;-90
2023/06/22 11:13:02;;;;;;;16.15;4.00;;;;;;;;;;6303586;22;20164;-88
2023/06/22 11:16:11;;;;;;;9.65;3.78;;;;;;;;;;6285319;22;20164;-91
2023/06/22 11:23:15;;;;;;;11.88;3.80;;;;;;;;;;6307080;22;20456;-91
2023/06/22 11:26:23;;;;;;;13.02;4.20;;;;;;;;;;6307125;22;20176;-90
2023/06/22 11:29:29;;;;;;;16.75;4.13;;;;;;;;;;6304411;22;20210;-90
2023/06/22 11:32:35;;;;;;;13.77;4.05;;;;;;;;;;6305081;22;20160;-88
2023/06/22 11:35:41;;;;;;;16.33;4.40;;;;;;;;;;6310602;22;20216;-89
2023/06/22 11:38:49;;;;;;;18.92;4.65;;;;;;;;;;6308320;22;20266;-88
2023/06/22 11:41:57;;;;;;;17.67;4.50;;;;;;;;;;6308662;22;20216;-90
2023/06/22 11:45:04;;;;;;;17.77;4.45;;;;;;;;;;6304919;22;20168;-90
2023/06/22 11:48:10;;;;;;;19.77;4.72;;;;;;;;;;6305856;22;20172;-89
2023/06/22 11:51:16;;;;;;;17.45;4.13;;;;;;;;;;6309040;22;20192;-90
2023/06/22 11:54:22;;;;;;;23.30;4.72;;;;;;;;;;6307620;22;20207;-91
2023/06/22 11:57:58;;;;;;;14.88;4.53;;;;;;;;;;6306116;22;20176;-91
2023/06/22 12:01:04;;;;;;;13.07;4.18;;;;;;;;;;6305654;22;20172;-91
2023/06/22 12:04:11;;;;;;;20.00;5.10;;;;;;;;;;6305957;22;20172;-90
2023/06/22 12:07:16;;;;;;;23.42;5.50;;;;;;;;;;6307394;22;20168;-90
2023/06/22 12:10:21;;;;;;;14.32;4.40;;;;;;;;;;6309615;22;20204;-91
2023/06/22 12:13:28;;;;;;;16.02;4.75;;;;;;;;;;6308779;22;20164;-89
2023/06/22 12:16:34;;;;;;;21.05;4.22;;;;;;;;;;6306977;22;20191;-90
2023/06/22 12:19:41;;;;;;;12.60;4.03;;;;;;;;;;6308106;22;20172;-89
2023/06/22 12:22:47;;;;;;;16.63;4.65;;;;;;;;;;6305228;22;20161;-92
2023/06/22 12:25:52;;;;;;;18.92;5.00;;;;;;;;;;6304153;22;20164;-88
2023/06/22 12:28:59;;;;;;;14.77;4.68;;;;;;;;;;6300234;22;20222;-89
2023/06/22 12:32:03;;;;;;;17.90;4.72;;;;;;;;;;6298829;22;20172;-89
2023/06/22 12:35:13;;;;;;;14.70;4.65;;;;;;;;;;6304880;22;20211;-91
2023/06/22 12:38:19;;;;;;;16.75;5.28;;;;;;;;;;6300927;22;20188;-90
2023/06/22 12:41:40;;;;;;;18.02;4.18;;;;;;;;;;6301547;22;20161;-89
2023/06/22 12:44:47;;;;;;;15.90;4.85;;;;;;;;;;6300698;22;20164;-86
2023/06/22 12:47:53;;;;;;;13.50;4.40;;;;;;;;;;6310502;22;20240;-89
2023/06/22 12:51:00;;;;;;;16.13;4.25;;;;;;;;;;6309145;22;20164;-89
2023/06/22 12:54:05;;;;;;;16.58;4.85;;;;;;;;;;6306746;22;20160;-89
2023/06/22 12:57:17;;;;;;;12.90;4.07;;;;;;;;;;6307585;22;20174;-90
2023/06/22 13:00:32;;;;;;;16.13;4.75;;;;;;;;;;6306770;22;20172;-88
2023/06/22 13:03:38;;;;;;;19.02;4.60;;;;;;;;;;6307213;22;20617;-88
2023/06/22 13:06:43;;;;;;;22.88;4.90;;;;;;;;;;6304261;22;20211;-90
2023/06/22 13:09:51;;;;;;;13.63;4.38;;;;;;;;;;6306986;22;20252;-90
2023/06/22 13:13:00;;;;;;;15.85;4.28;;;;;;;;;;6306455;22;20207;-89
2023/06/22 13:16:07;;;;;;;13.95;4.65;;;;;;;;;;6305324;22;20184;-88
2023/06/22 13:19:17;;;;;;;16.45;4.80;;;;;;;;;;6279712;22;20275;-89
2023/06/22 13:22:30;;;;;;;16.98;4.65;;;;;;;;;;6308589;22;20169;-90
2023/06/22 13:25:35;;;;;;;18.98;4.50;;;;;;;;;;6306314;22;20623;-89
2023/06/22 13:28:41;;;;;;;22.83;5.25;;;;;;;;;;6305085;22;20176;-90
2023/06/22 13:31:48;;;;;;;19.23;4.47;;;;;;;;;;6306242;22;20188;-90
2023/06/22 13:34:57;;;;;;;16.85;4.65;;;;;;;;;;6305889;22;20183;-90
2023/06/22 13:38:03;;;;;;;21.55;5.30;;;;;;;;;;6307900;22;20307;-88
2023/06/22 13:41:14;;;;;;;19.90;4.90;;;;;;;;;;6305617;22;20168;-89
2023/06/22 13:44:21;;;;;;;15.00;4.13;;;;;;;;;;6304470;22;20215;-91
2023/06/22 13:47:28;;;;;;;23.30;4.45;;;;;;;;;;6301817;22;20236;-90
2023/06/22 13:50:33;;;;;;;14.07;4.55;;;;;;;;;;6301245;22;20160;-90
2023/06/22 13:53:38;;;;;;;16.25;4.50;;;;;;;;;;6302589;22;20625;-91
2023/06/22 13:56:56;;;;;;;17.85;4.63;;;;;;;;;;6301937;22;20165;-90
2023/06/22 14:00:01;;;;;;;14.88;4.28;;;;;;;;;;6304105;22;20164;-90
2023/06/22 14:03:18;;;;;;;17.83;4.75;;;;;;;;;;6322634;22;20168;-92
2023/06/22 14:06:23;;;;;;;16.48;4.15;;;;;;;;;;6303447;22;20239;-90
2023/06/22 14:09:27;;;;;;;15.75;3.97;;;;;;;;;;6304850;22;20156;-90
2023/06/22 14:12:33;;;;;;;18.55;4.53;;;;;;;;;;6302284;22;20619;-90
2023/06/22 14:15:38;;;;;;;17.10;4.28;;;;;;;;;;6300747;22;20229;-91
2023/06/22 14:19:08;;;;;;;20.10;4.90;;;;;;;;;;6304991;22;20235;-90
2023/06/22 14:22:15;;;;;;;24.85;4.57;;;;;;;;;;6304833;22;20207;-88
2023/06/22 14:25:20;;;;;;;20.05;4.97;;;;;;;;;;6306352;22;20449;-91
2023/06/22 14:28:26;;;;;;;24.15;4.78;;;;;;;;;;6306267;22;20148;-90
2023/06/22 14:31:31;;;;;;;18.83;4.90;;;;;;;;;;6306272;22;20165;-89
2023/06/22 14:34:39;;;;;;;14.68;4.57;;;;;;;;;;6306598;22;20172;-90
2023/06/22 14:37:45;;;;;;;26.10;5.05;;;;;;;;;;6304462;22;20169;-90
2023/06/22 14:44:24;;;;;;;20.92;4.43;;;;;;;;;;6303598;22;20160;-90
2023/06/22 14:47:29;;;;;;;13.77;4.80;;;;;;;;;;6300985;22;20161;-90
2023/06/22 14:50:36;;;;;;;15.40;4.40;;;;;;;;;;6303173;22;20223;-90
2023/06/22 14:53:43;;;;;;;15.50;4.93;;;;;;;;;;6302981;22;20152;-90
2023/06/22 14:56:49;;;;;;;15.88;4.97;;;;;;;;;;6302526;22;20168;-91
2023/06/22 14:59:55;;;;;;;22.27;4.93;;;;;;;;;;6305990;22;20196;-91
2023/06/22 15:03:01;;;;;;;16.05;4.70;;;;;;;;;;6305223;22;20164;-90
2023/06/22 15:06:07;;;;;;;15.02;5.10;;;;;;;;;;6306375;22;20183;-89
2023/06/22 15:09:14;;;;;;;17.17;5.22;;;;;;;;;;6305062;22;20431;-89
2023/06/22 15:12:19;;;;;;;22.83;5.07;;;;;;;;;;6302981;22;20168;-90
2023/06/22 15:15:24;;;;;;;13.43;5.38;;;;;;;;;;6302965;22;20169;-89
2023/06/22 15:18:45;;;;;;;13.95;4.88;;;;;;;;;;6301906;22;20191;-90
2023/06/22 15:21:50;;;;;;;23.92;5.30;;;;;;;;;;6302766;22;20254;-89
2023/06/22 15:24:58;;;;;;;14.45;4.90;;;;;;;;;;6303310;22;20194;-89
2023/06/22 15:28:07;;;;;;;17.83;4.95;;;;;;;;;;6304395;22;20184;-88
2023/06/22 15:31:12;;;;;;;17.63;4.97;;;;;;;;;;6304204;22;20173;-87
2023/06/22 15:34:17;;;;;;;15.40;4.90;;;;;;;;;;6322028;22;20163;-89
2023/06/22 15:37:22;;;;;;;16.55;4.63;;;;;;;;;;6318786;22;20171;-89
2023/06/22 15:40:57;;;;;;;17.55;4.50;;;;;;;;;;6304049;22;20852;-88
2023/06/22 15:44:03;;;;;;;16.27;5.07;;;;;;;;;;6302779;22;20169;-90
2023/06/22 15:47:09;;;;;;;16.52;5.30;;;;;;;;;;6303746;22;20169;-90
2023/06/22 15:50:14;;;;;;;14.25;5.45;;;;;;;;;;6303726;22;20160;-89
2023/06/22 15:53:19;;;;;;;18.25;5.30;;;;;;;;;;6304837;22;20184;-89
2023/06/22 15:56:30;;;;;;;11.95;4.75;;;;;;;;;;6304576;22;20494;-89
2023/06/22 15:59:37;;;;;;;16.40;5.38;;;;;;;;;;6306254;22;20191;-88
2023/06/22 16:02:42;;;;;;;23.23;5.70;;;;;;;;;;6305819;22;20184;-88
2023/06/22 16:05:48;;;;;;;18.13;5.43;;;;;;;;;;6302874;22;20164;-90
2023/06/22 16:08:53;;;;;;;15.25;5.05;;;;;;;;;;6304470;22;20255;-90
2023/06/22 16:11:58;;;;;;;19.00;5.35;;;;;;;;;;6304761;22;20183;-89
